sensor_id;sensor_type;location;lat;lon;timestamp;pressure;altitude;pressure_sealevel;temperature;humidity
11499;BME280;5806;48.748;9.278;2023-08-12T00:01:32;101200.81;;;20.65;100.00
11499;BME280;5806;48.748;9.278;2023-08-12T00:03:59;101201.94;;;20.64;100.00
11499;BME280;5806;48.748;9.278;2023-08-12T00:06:27;101212.66;;;20.73;100.00
11499;BME280;5806;48.748;9.278;2023-08-12T00:08:55;101212.11;;;20.74;100.00
11499;BME280;5806;48.748;9.278;2023-08-12T00:11:22;101205.81;;;20.66;100.00
11499;BME280;5806;48.748;9.278;2023-08-12T00:13:50;101203.84;;;20.66;100.00
11499;BME280;5806;48.748;9.278;2023-08-12T00:16:17;101210.28;;;20.64;100.00
11499;BME280;5806;48.748;9.278;2023-08-12T00:18:45;101206.55;;;20.74;100.00
11499;BME280;5806;48.748;9.278;2023-08-12T00:21:12;101211.92;;;20.65;100.00
11499;BME280;5806;48.748;9.278;2023-08-12T00:23:40;101213.64;;;20.61;100.00
11499;BME280;5806;48.748;9.278;2023-08-12T00:26:09;101216.06;;;20.68;100.00
11499;BME280;5806;48.748;9.278;2023-08-12T00:28:37;101213.68;;;20.59;100.00
11499;BME280;5806;48.748;9.278;2023-08-12T00:31:05;101207.53;;;20.62;100.00
11499;BME280;5806;48.748;9.278;2023-08-12T00:33:32;101214.96;;;20.66;100.00
11499;BME280;5806;48.748;9.278;2023-08-12T00:36:00;101207.69;;;20.70;100.00
11499;BME280;5806;48.748;9.278;2023-08-12T00:38:28;101203.33;;;20.64;100.00
11499;BME280;5806;48.748;9.278;2023-08-12T00:40:56;101209.69;;;20.67;100.00
11499;BME280;5806;48.748;9.278;2023-08-12T00:43:27;101206.63;;;20.66;100.00
11499;BME280;5806;48.748;9.278;2023-08-12T00:45:54;101204.68;;;20.67;100.00
11499;BME280;5806;48.748;9.278;2023-08-12T00:48:22;101200.88;;;20.60;100.00
11499;BME280;5806;48.748;9.278;2023-08-12T00:50:50;101203.91;;;20.61;100.00
11499;BME280;5806;48.748;9.278;2023-08-12T00:53:18;101203.95;;;20.59;100.00
11499;BME280;5806;48.748;9.278;2023-08-12T00:55:46;101198.75;;;20.52;100.00
11499;BME280;5806;48.748;9.278;2023-08-12T00:58:13;101192.61;;;20.55;100.00
11499;BME280;5806;48.748;9.278;2023-08-12T01:00:41;101197.69;;;20.48;100.00
11499;BME280;5806;48.748;9.278;2023-08-12T01:03:08;101188.55;;;20.45;100.00
11499;BME280;5806;48.748;9.278;2023-08-12T01:05:36;101182.48;;;20.43;100.00
11499;BME280;5806;48.748;9.278;2023-08-12T01:08:04;101176.88;;;20.46;100.00
11499;BME280;5806;48.748;9.278;2023-08-12T01:10:35;101181.86;;;20.49;100.00
11499;BME280;5806;48.748;9.278;2023-08-12T01:13:17;101172.42;;;20.47;100.00
11499;BME280;5806;48.748;9.278;2023-08-12T01:15:44;101170.55;;;20.40;100.00
11499;BME280;5806;48.748;9.278;2023-08-12T01:18:14;101167.70;;;20.45;100.00
11499;BME280;5806;48.748;9.278;2023-08-12T01:20:42;101169.39;;;20.46;100.00
11499;BME280;5806;48.748;9.278;2023-08-12T01:23:12;101162.44;;;20.44;100.00
11499;BME280;5806;48.748;9.278;2023-08-12T01:25:40;101147.16;;;20.44;100.00
11499;BME280;5806;48.748;9.278;2023-08-12T01:28:08;101147.70;;;20.46;100.00
11499;BME280;5806;48.748;9.278;2023-08-12T01:30:51;101144.16;;;20.40;100.00
11499;BME280;5806;48.748;9.278;2023-08-12T01:33:22;101146.46;;;20.33;100.00
11499;BME280;5806;48.748;9.278;2023-08-12T01:35:54;101146.20;;;20.32;100.00
11499;BME280;5806;48.748;9.278;2023-08-12T01:38:24;101141.05;;;20.23;100.00
11499;BME280;5806;48.748;9.278;2023-08-12T01:40:54;101146.02;;;20.26;100.00
11499;BME280;5806;48.748;9.278;2023-08-12T01:43:22;101137.03;;;20.32;100.00
11499;BME280;5806;48.748;9.278;2023-08-12T01:45:50;101120.20;;;20.23;100.00
11499;BME280;5806;48.748;9.278;2023-08-12T01:48:18;101131.06;;;20.20;100.00
11499;BME280;5806;48.748;9.278;2023-08-12T01:50:47;101128.03;;;20.19;100.00
11499;BME280;5806;48.748;9.278;2023-08-12T01:53:14;101123.86;;;20.19;100.00
11499;BME280;5806;48.748;9.278;2023-08-12T01:55:45;101124.66;;;20.22;100.00
11499;BME280;5806;48.748;9.278;2023-08-12T01:58:13;101118.56;;;20.20;100.00
11499;BME280;5806;48.748;9.278;2023-08-12T02:00:40;101116.66;;;20.18;100.00
11499;BME280;5806;48.748;9.278;2023-08-12T02:03:08;101119.41;;;20.20;100.00
11499;BME280;5806;48.748;9.278;2023-08-12T02:05:35;101116.08;;;20.21;100.00
11499;BME280;5806;48.748;9.278;2023-08-12T02:08:04;101113.33;;;20.18;100.00
11499;BME280;5806;48.748;9.278;2023-08-12T02:10:34;101108.59;;;20.19;100.00
11499;BME280;5806;48.748;9.278;2023-08-12T02:13:02;101110.52;;;20.21;100.00
11499;BME280;5806;48.748;9.278;2023-08-12T02:15:30;101113.78;;;20.25;100.00
11499;BME280;5806;48.748;9.278;2023-08-12T02:17:58;101116.52;;;20.28;100.00
11499;BME280;5806;48.748;9.278;2023-08-12T02:20:26;101108.59;;;20.19;100.00
11499;BME280;5806;48.748;9.278;2023-08-12T02:22:55;101110.55;;;20.18;100.00
11499;BME280;5806;48.748;9.278;2023-08-12T02:25:22;101105.33;;;20.14;100.00
11499;BME280;5806;48.748;9.278;2023-08-12T02:27:50;101110.59;;;20.13;100.00
11499;BME280;5806;48.748;9.278;2023-08-12T02:30:18;101105.65;;;20.10;100.00
11499;BME280;5806;48.748;9.278;2023-08-12T02:32:45;101103.12;;;20.11;100.00
11499;BME280;5806;48.748;9.278;2023-08-12T02:35:13;101104.52;;;20.11;100.00
11499;BME280;5806;48.748;9.278;2023-08-12T02:37:40;101101.74;;;20.11;100.00
11499;BME280;5806;48.748;9.278;2023-08-12T02:40:10;101099.77;;;20.12;100.00
11499;BME280;5806;48.748;9.278;2023-08-12T02:42:37;101105.14;;;20.03;100.00
11499;BME280;5806;48.748;9.278;2023-08-12T02:45:05;101101.27;;;20.02;100.00
11499;BME280;5806;48.748;9.278;2023-08-12T02:47:33;101095.39;;;20.06;100.00
11499;BME280;5806;48.748;9.278;2023-08-12T02:50:00;101095.94;;;20.05;100.00
11499;BME280;5806;48.748;9.278;2023-08-12T02:52:29;101094.25;;;20.09;100.00
11499;BME280;5806;48.748;9.278;2023-08-12T02:54:56;101088.11;;;20.12;100.00
11499;BME280;5806;48.748;9.278;2023-08-12T02:57:24;101086.19;;;20.08;100.00
11499;BME280;5806;48.748;9.278;2023-08-12T02:59:51;101088.08;;;20.15;100.00
11499;BME280;5806;48.748;9.278;2023-08-12T03:02:19;101078.14;;;20.09;100.00
11499;BME280;5806;48.748;9.278;2023-08-12T03:04:46;101077.89;;;20.05;100.00
11499;BME280;5806;48.748;9.278;2023-08-12T03:07:14;101072.33;;;20.05;100.00
11499;BME280;5806;48.748;9.278;2023-08-12T03:09:41;101069.27;;;20.07;100.00
11499;BME280;5806;48.748;9.278;2023-08-12T03:12:09;101078.14;;;20.09;100.00
11499;BME280;5806;48.748;9.278;2023-08-12T03:14:36;101065.42;;;20.03;100.00
11499;BME280;5806;48.748;9.278;2023-08-12T03:17:04;101065.35;;;20.08;100.00
11499;BME280;5806;48.748;9.278;2023-08-12T03:19:31;101068.71;;;20.07;100.00
11499;BME280;5806;48.748;9.278;2023-08-12T03:21:59;101065.09;;;20.07;100.00
11499;BME280;5806;48.748;9.278;2023-08-12T03:24:26;101067.83;;;20.14;100.00
11499;BME280;5806;48.748;9.278;2023-08-12T03:26:54;101059.46;;;20.17;100.00
11499;BME280;5806;48.748;9.278;2023-08-12T03:29:21;101063.16;;;20.10;100.00
11499;BME280;5806;48.748;9.278;2023-08-12T03:31:49;101060.93;;;20.07;100.00
11499;BME280;5806;48.748;9.278;2023-08-12T03:34:16;101052.16;;;19.97;100.00
11499;BME280;5806;48.748;9.278;2023-08-12T03:36:44;101053.25;;;19.99;100.00
11499;BME280;5806;48.748;9.278;2023-08-12T03:39:13;101051.35;;;19.97;100.00
11499;BME280;5806;48.748;9.278;2023-08-12T03:41:41;101042.44;;;19.97;100.00
11499;BME280;5806;48.748;9.278;2023-08-12T03:44:08;101038.23;;;20.02;100.00
11499;BME280;5806;48.748;9.278;2023-08-12T03:46:36;101043.46;;;20.06;100.00
11499;BME280;5806;48.748;9.278;2023-08-12T03:49:03;101037.91;;;20.06;100.00
11499;BME280;5806;48.748;9.278;2023-08-12T03:51:31;101035.97;;;20.04;100.00
11499;BME280;5806;48.748;9.278;2023-08-12T03:53:58;101030.52;;;19.97;100.00
11499;BME280;5806;48.748;9.278;2023-08-12T03:56:29;101025.45;;;20.01;100.00
11499;BME280;5806;48.748;9.278;2023-08-12T03:58:56;101023.25;;;20.01;100.00
11499;BME280;5806;48.748;9.278;2023-08-12T04:01:24;101015.69;;;20.04;100.00
11499;BME280;5806;48.748;9.278;2023-08-12T04:03:52;101012.23;;;19.93;100.00
11499;BME280;5806;48.748;9.278;2023-08-12T04:06:20;101009.48;;;19.91;100.00
11499;BME280;5806;48.748;9.278;2023-08-12T04:08:47;100999.95;;;19.99;100.00
11499;BME280;5806;48.748;9.278;2023-08-12T04:11:15;100999.36;;;20.02;100.00
11499;BME280;5806;48.748;9.278;2023-08-12T04:13:42;100998.81;;;20.00;100.00
11499;BME280;5806;48.748;9.278;2023-08-12T04:16:10;100991.91;;;19.98;100.00
11499;BME280;5806;48.748;9.278;2023-08-12T04:18:37;100988.11;;;19.91;100.00
11499;BME280;5806;48.748;9.278;2023-08-12T04:21:05;100985.84;;;19.93;100.00
11499;BME280;5806;48.748;9.278;2023-08-12T04:23:32;100985.95;;;19.86;100.00
11499;BME280;5806;48.748;9.278;2023-08-12T04:26:00;100986.22;;;19.87;100.00
11499;BME280;5806;48.748;9.278;2023-08-12T04:28:27;100986.22;;;19.87;100.00
11499;BME280;5806;48.748;9.278;2023-08-12T04:30:55;100984.75;;;19.94;100.00
11499;BME280;5806;48.748;9.278;2023-08-12T04:33:23;100979.82;;;19.89;100.00
11499;BME280;5806;48.748;9.278;2023-08-12T04:35:52;100984.83;;;19.87;100.00
11499;BME280;5806;48.748;9.278;2023-08-12T04:38:20;100982.38;;;19.83;100.00
11499;BME280;5806;48.748;9.278;2023-08-12T04:40:48;100986.29;;;19.82;100.00
11499;BME280;5806;48.748;9.278;2023-08-12T04:43:15;100978.00;;;19.79;100.00
11499;BME280;5806;48.748;9.278;2023-08-12T04:45:45;100982.23;;;19.74;100.00
11499;BME280;5806;48.748;9.278;2023-08-12T04:48:13;100983.07;;;19.72;100.00
11499;BME280;5806;48.748;9.278;2023-08-12T04:50:42;100980.11;;;19.66;100.00
11499;BME280;5806;48.748;9.278;2023-08-12T04:53:10;100984.97;;;19.77;100.00
11499;BME280;5806;48.748;9.278;2023-08-12T04:55:38;100975.33;;;19.72;100.00
11499;BME280;5806;48.748;9.278;2023-08-12T04:58:05;100977.55;;;19.70;100.00
11499;BME280;5806;48.748;9.278;2023-08-12T05:00:32;100977.73;;;19.78;100.00
11499;BME280;5806;48.748;9.278;2023-08-12T05:03:00;100977.48;;;19.75;100.00
11499;BME280;5806;48.748;9.278;2023-08-12T05:05:28;100981.94;;;19.73;100.00
11499;BME280;5806;48.748;9.278;2023-08-12T05:07:55;100977.45;;;19.80;100.00
11499;BME280;5806;48.748;9.278;2023-08-12T05:10:23;100979.05;;;19.83;100.00
11499;BME280;5806;48.748;9.278;2023-08-12T05:12:50;100978.18;;;19.85;100.00
11499;BME280;5806;48.748;9.278;2023-08-12T05:15:20;100976.83;;;19.83;100.00
11499;BME280;5806;48.748;9.278;2023-08-12T05:17:47;100975.48;;;19.80;100.00
11499;BME280;5806;48.748;9.278;2023-08-12T05:20:15;100974.30;;;19.86;100.00
11499;BME280;5806;48.748;9.278;2023-08-12T05:22:42;100972.59;;;19.90;100.00
11499;BME280;5806;48.748;9.278;2023-08-12T05:25:10;100975.62;;;19.91;100.00
11499;BME280;5806;48.748;9.278;2023-08-12T05:27:37;100982.52;;;19.94;100.00
11499;BME280;5806;48.748;9.278;2023-08-12T05:30:05;100981.39;;;19.95;100.00
11499;BME280;5806;48.748;9.278;2023-08-12T05:32:33;100984.46;;;19.93;100.00
11499;BME280;5806;48.748;9.278;2023-08-12T05:35:00;100985.26;;;19.96;100.00
11499;BME280;5806;48.748;9.278;2023-08-12T05:37:28;100989.47;;;19.94;100.00
11499;BME280;5806;48.748;9.278;2023-08-12T05:39:55;100975.87;;;19.92;100.00
11499;BME280;5806;48.748;9.278;2023-08-12T05:42:23;100973.27;;;20.01;100.00
11499;BME280;5806;48.748;9.278;2023-08-12T05:44:50;100977.48;;;19.98;100.00
11499;BME280;5806;48.748;9.278;2023-08-12T05:47:18;100989.89;;;20.03;100.00
11499;BME280;5806;48.748;9.278;2023-08-12T05:49:45;100982.70;;;20.02;100.00
11499;BME280;5806;48.748;9.278;2023-08-12T05:52:13;100982.11;;;20.03;100.00
11499;BME280;5806;48.748;9.278;2023-08-12T05:54:40;100990.16;;;20.04;100.00
11499;BME280;5806;48.748;9.278;2023-08-12T05:57:07;100997.94;;;20.05;100.00
11499;BME280;5806;48.748;9.278;2023-08-12T05:59:35;100996.08;;;19.98;100.00
11499;BME280;5806;48.748;9.278;2023-08-12T06:02:02;101002.35;;;20.06;100.00
11499;BME280;5806;48.748;9.278;2023-08-12T06:04:30;101005.67;;;20.10;100.00
11499;BME280;5806;48.748;9.278;2023-08-12T06:06:57;101015.44;;;20.03;100.00
11499;BME280;5806;48.748;9.278;2023-08-12T06:09:25;101008.57;;;19.98;100.00
11499;BME280;5806;48.748;9.278;2023-08-12T06:11:52;101005.80;;;19.98;100.00
11499;BME280;5806;48.748;9.278;2023-08-12T06:14:20;101009.41;;;19.96;100.00
11499;BME280;5806;48.748;9.278;2023-08-12T06:16:47;101010.55;;;19.95;100.00
11499;BME280;5806;48.748;9.278;2023-08-12T06:19:14;101011.38;;;19.95;100.00
11499;BME280;5806;48.748;9.278;2023-08-12T06:21:42;101015.00;;;19.93;100.00
11499;BME280;5806;48.748;9.278;2023-08-12T06:24:09;101013.10;;;19.91;100.00
11499;BME280;5806;48.748;9.278;2023-08-12T06:26:37;101004.77;;;19.91;100.00
11499;BME280;5806;48.748;9.278;2023-08-12T06:29:04;101005.09;;;19.87;100.00
11499;BME280;5806;48.748;9.278;2023-08-12T06:31:32;100996.23;;;19.85;100.00
11499;BME280;5806;48.748;9.278;2023-08-12T06:33:59;100989.83;;;19.87;100.00
11499;BME280;5806;48.748;9.278;2023-08-12T06:36:27;100980.44;;;19.83;100.00
11499;BME280;5806;48.748;9.278;2023-08-12T06:38:54;100969.92;;;19.80;100.00
11499;BME280;5806;48.748;9.278;2023-08-12T06:41:22;100996.04;;;19.79;100.00
11499;BME280;5806;48.748;9.278;2023-08-12T06:43:49;100987.81;;;19.72;100.00
11499;BME280;5806;48.748;9.278;2023-08-12T06:46:17;100980.84;;;19.74;100.00
11499;BME280;5806;48.748;9.278;2023-08-12T06:48:44;100972.33;;;19.66;100.00
11499;BME280;5806;48.748;9.278;2023-08-12T06:51:12;100970.62;;;19.70;100.00
11499;BME280;5806;48.748;9.278;2023-08-12T06:53:39;100947.57;;;19.72;100.00
11499;BME280;5806;48.748;9.278;2023-08-12T06:56:07;100924.27;;;19.70;100.00
11499;BME280;5806;48.748;9.278;2023-08-12T06:58:35;100947.12;;;19.83;100.00
11499;BME280;5806;48.748;9.278;2023-08-12T07:01:02;100958.31;;;19.78;100.00
11499;BME280;5806;48.748;9.278;2023-08-12T07:03:29;100956.34;;;19.79;100.00
11499;BME280;5806;48.748;9.278;2023-08-12T07:05:57;100953.34;;;19.75;100.00
11499;BME280;5806;48.748;9.278;2023-08-12T07:08:24;100954.40;;;19.79;100.00
11499;BME280;5806;48.748;9.278;2023-08-12T07:10:53;100946.59;;;19.81;100.00
11499;BME280;5806;48.748;9.278;2023-08-12T07:13:20;100948.11;;;19.92;100.00
11499;BME280;5806;48.748;9.278;2023-08-12T07:15:48;100937.17;;;20.01;100.00
11499;BME280;5806;48.748;9.278;2023-08-12T07:18:15;100924.80;;;20.12;100.00
11499;BME280;5806;48.748;9.278;2023-08-12T07:20:43;100917.31;;;20.12;100.00
11499;BME280;5806;48.748;9.278;2023-08-12T07:23:10;100912.05;;;20.11;100.00
11499;BME280;5806;48.748;9.278;2023-08-12T07:25:38;100909.28;;;20.08;100.00
11499;BME280;5806;48.748;9.278;2023-08-12T07:28:05;100890.98;;;20.07;100.00
11499;BME280;5806;48.748;9.278;2023-08-12T07:30:35;100925.69;;;20.07;100.00
11499;BME280;5806;48.748;9.278;2023-08-12T07:33:03;100960.36;;;20.12;100.00
11499;BME280;5806;48.748;9.278;2023-08-12T07:35:31;100965.80;;;20.20;100.00
11499;BME280;5806;48.748;9.278;2023-08-12T07:37:58;100961.53;;;20.27;100.00
11499;BME280;5806;48.748;9.278;2023-08-12T07:40:26;100972.27;;;20.34;100.00
11499;BME280;5806;48.748;9.278;2023-08-12T07:42:53;100982.25;;;20.35;100.00
11499;BME280;5806;48.748;9.278;2023-08-12T07:45:22;100972.52;;;20.35;100.00
11499;BME280;5806;48.748;9.278;2023-08-12T07:47:49;100972.44;;;20.40;100.00
11499;BME280;5806;48.748;9.278;2023-08-12T07:50:17;100969.98;;;20.38;100.00
11499;BME280;5806;48.748;9.278;2023-08-12T07:52:45;100970.28;;;20.37;100.00
11499;BME280;5806;48.748;9.278;2023-08-12T07:55:12;100968.65;;;20.33;100.00
11499;BME280;5806;48.748;9.278;2023-08-12T07:57:40;100964.73;;;20.37;100.00
11499;BME280;5806;48.748;9.278;2023-08-12T08:00:08;100959.13;;;20.39;100.00
11499;BME280;5806;48.748;9.278;2023-08-12T08:02:36;100959.36;;;20.59;100.00
11499;BME280;5806;48.748;9.278;2023-08-12T08:05:03;100964.98;;;20.72;100.00
11499;BME280;5806;48.748;9.278;2023-08-12T08:07:31;100943.56;;;20.57;100.00
11499;BME280;5806;48.748;9.278;2023-08-12T08:09:58;100952.66;;;20.60;100.00
11499;BME280;5806;48.748;9.278;2023-08-12T08:12:26;100959.12;;;20.74;100.00
11499;BME280;5806;48.748;9.278;2023-08-12T08:14:53;100951.22;;;20.65;100.00
11499;BME280;5806;48.748;9.278;2023-08-12T08:17:21;100956.41;;;20.53;100.00
11499;BME280;5806;48.748;9.278;2023-08-12T08:19:48;100955.67;;;20.47;100.00
11499;BME280;5806;48.748;9.278;2023-08-12T08:22:15;100952.34;;;20.45;100.00
11499;BME280;5806;48.748;9.278;2023-08-12T08:24:44;100946.03;;;20.42;100.00
11499;BME280;5806;48.748;9.278;2023-08-12T08:27:11;100935.59;;;20.34;100.00
11499;BME280;5806;48.748;9.278;2023-08-12T08:29:39;100926.23;;;20.46;100.00
11499;BME280;5806;48.748;9.278;2023-08-12T08:32:07;100937.31;;;20.65;100.00
11499;BME280;5806;48.748;9.278;2023-08-12T08:34:35;100925.50;;;20.89;100.00
11499;BME280;5806;48.748;9.278;2023-08-12T08:37:02;100931.09;;;21.02;100.00
11499;BME280;5806;48.748;9.278;2023-08-12T08:39:29;100932.13;;;20.93;100.00
11499;BME280;5806;48.748;9.278;2023-08-12T08:41:57;100936.18;;;20.82;100.00
11499;BME280;5806;48.748;9.278;2023-08-12T08:44:28;100947.66;;;20.78;100.00
11499;BME280;5806;48.748;9.278;2023-08-12T08:46:59;100956.73;;;20.83;100.00
11499;BME280;5806;48.748;9.278;2023-08-12T08:49:26;100949.55;;;20.80;100.00
11499;BME280;5806;48.748;9.278;2023-08-12T08:51:56;100959.56;;;20.81;100.00
11499;BME280;5806;48.748;9.278;2023-08-12T08:54:24;100959.46;;;20.70;100.00
11499;BME280;5806;48.748;9.278;2023-08-12T08:56:51;100962.80;;;20.69;100.00
11499;BME280;5806;48.748;9.278;2023-08-12T08:59:19;100959.77;;;20.68;100.00
11499;BME280;5806;48.748;9.278;2023-08-12T09:01:49;100958.23;;;20.60;100.00
11499;BME280;5806;48.748;9.278;2023-08-12T09:04:20;100967.41;;;20.60;100.00
11499;BME280;5806;48.748;9.278;2023-08-12T09:06:48;100971.66;;;20.55;100.00
11499;BME280;5806;48.748;9.278;2023-08-12T09:09:17;100970.07;;;20.49;100.00
11499;BME280;5806;48.748;9.278;2023-08-12T09:11:47;100968.72;;;20.47;100.00
11499;BME280;5806;48.748;9.278;2023-08-12T09:14:14;100965.05;;;20.51;100.00
11499;BME280;5806;48.748;9.278;2023-08-12T09:16:42;100958.06;;;20.54;100.00
11499;BME280;5806;48.748;9.278;2023-08-12T09:19:10;100961.16;;;20.68;100.00
11499;BME280;5806;48.748;9.278;2023-08-12T09:21:37;100964.98;;;20.88;100.00
11499;BME280;5806;48.748;9.278;2023-08-12T09:24:05;100955.87;;;21.01;100.00
11499;BME280;5806;48.748;9.278;2023-08-12T09:26:33;100964.10;;;21.09;100.00
11499;BME280;5806;48.748;9.278;2023-08-12T09:29:00;100958.54;;;21.09;100.00
11499;BME280;5806;48.748;9.278;2023-08-12T09:31:29;100971.61;;;21.08;100.00
11499;BME280;5806;48.748;9.278;2023-08-12T09:34:00;100967.23;;;21.05;100.00
11499;BME280;5806;48.748;9.278;2023-08-12T09:36:28;100971.42;;;21.02;100.00
11499;BME280;5806;48.748;9.278;2023-08-12T09:38:57;100965.44;;;21.11;100.00
11499;BME280;5806;48.748;9.278;2023-08-12T09:41:26;100968.58;;;21.07;100.00
11499;BME280;5806;48.748;9.278;2023-08-12T09:43:55;100963.52;;;21.09;100.00
11499;BME280;5806;48.748;9.278;2023-08-12T09:46:23;100962.84;;;21.31;100.00
11499;BME280;5806;48.748;9.278;2023-08-12T09:48:51;100959.64;;;21.37;100.00
11499;BME280;5806;48.748;9.278;2023-08-12T09:51:21;100954.80;;;21.43;100.00
11499;BME280;5806;48.748;9.278;2023-08-12T09:53:50;100955.84;;;21.60;97.70
11499;BME280;5806;48.748;9.278;2023-08-12T09:56:21;100944.59;;;21.52;100.00
11499;BME280;5806;48.748;9.278;2023-08-12T09:58:49;100935.75;;;21.63;99.56
11499;BME280;5806;48.748;9.278;2023-08-12T10:01:19;100946.52;;;21.67;100.00
11499;BME280;5806;48.748;9.278;2023-08-12T10:03:49;100949.02;;;21.66;100.00
11499;BME280;5806;48.748;9.278;2023-08-12T10:06:18;100954.45;;;21.47;100.00
11499;BME280;5806;48.748;9.278;2023-08-12T10:08:47;100951.72;;;21.44;100.00
11499;BME280;5806;48.748;9.278;2023-08-12T10:11:16;100950.83;;;21.46;100.00
11499;BME280;5806;48.748;9.278;2023-08-12T10:13:43;100953.09;;;21.31;100.00
11499;BME280;5806;48.748;9.278;2023-08-12T10:16:11;100945.28;;;21.17;100.00
11499;BME280;5806;48.748;9.278;2023-08-12T10:18:40;100947.06;;;21.13;100.00
11499;BME280;5806;48.748;9.278;2023-08-12T10:21:10;100942.50;;;21.17;100.00
11499;BME280;5806;48.748;9.278;2023-08-12T10:23:38;100943.39;;;21.15;98.88
11499;BME280;5806;48.748;9.278;2023-08-12T10:26:06;100941.53;;;20.94;100.00
11499;BME280;5806;48.748;9.278;2023-08-12T10:28:34;100942.69;;;20.91;100.00
11499;BME280;5806;48.748;9.278;2023-08-12T10:31:04;100940.67;;;20.96;100.00
11499;BME280;5806;48.748;9.278;2023-08-12T10:33:37;100940.81;;;20.86;100.00
11499;BME280;5806;48.748;9.278;2023-08-12T10:36:05;100938.81;;;20.89;100.00
11499;BME280;5806;48.748;9.278;2023-08-12T10:38:34;100931.45;;;20.98;100.00
11499;BME280;5806;48.748;9.278;2023-08-12T10:41:22;100931.78;;;21.10;100.00
11499;BME280;5806;48.748;9.278;2023-08-12T10:43:59;100930.46;;;21.21;99.93
11499;BME280;5806;48.748;9.278;2023-08-12T10:46:35;100928.36;;;21.29;99.98
11499;BME280;5806;48.748;9.278;2023-08-12T10:49:08;100932.48;;;21.32;100.00
11499;BME280;5806;48.748;9.278;2023-08-12T10:54:22;100922.03;;;21.53;99.81
11499;BME280;5806;48.748;9.278;2023-08-12T10:59:53;100937.33;;;21.40;97.95
11499;BME280;5806;48.748;9.278;2023-08-12T11:02:31;100925.22;;;21.33;99.35
11499;BME280;5806;48.748;9.278;2023-08-12T11:05:09;100926.47;;;21.27;98.71
11499;BME280;5806;48.748;9.278;2023-08-12T11:07:56;100919.81;;;21.26;98.38
11499;BME280;5806;48.748;9.278;2023-08-12T11:10:34;100920.83;;;21.16;100.00
11499;BME280;5806;48.748;9.278;2023-08-12T11:13:02;100910.84;;;21.15;100.00
11499;BME280;5806;48.748;9.278;2023-08-12T11:15:44;100908.81;;;21.18;100.00
11499;BME280;5806;48.748;9.278;2023-08-12T11:18:12;100908.13;;;21.10;100.00
11499;BME280;5806;48.748;9.278;2023-08-12T11:20:41;100908.23;;;21.05;100.00
11499;BME280;5806;48.748;9.278;2023-08-12T11:23:09;100907.78;;;21.14;100.00
11499;BME280;5806;48.748;9.278;2023-08-12T11:25:39;100898.94;;;21.12;100.00
11499;BME280;5806;48.748;9.278;2023-08-12T11:28:07;100898.94;;;21.12;100.00
11499;BME280;5806;48.748;9.278;2023-08-12T11:30:35;100893.06;;;21.14;100.00
11499;BME280;5806;48.748;9.278;2023-08-12T11:33:03;100885.34;;;21.24;100.00
11499;BME280;5806;48.748;9.278;2023-08-12T11:35:31;100887.81;;;21.26;100.00
11499;BME280;5806;48.748;9.278;2023-08-12T11:37:58;100880.70;;;21.33;100.00
11499;BME280;5806;48.748;9.278;2023-08-12T11:40:27;100886.73;;;21.24;100.00
11499;BME280;5806;48.748;9.278;2023-08-12T11:42:55;100879.61;;;21.18;100.00
11499;BME280;5806;48.748;9.278;2023-08-12T11:45:24;100885.77;;;21.31;100.00
11499;BME280;5806;48.748;9.278;2023-08-12T11:47:52;100890.38;;;21.22;100.00
11499;BME280;5806;48.748;9.278;2023-08-12T11:50:22;100882.25;;;21.26;100.00
11499;BME280;5806;48.748;9.278;2023-08-12T11:52:50;100884.20;;;21.25;100.00
11499;BME280;5806;48.748;9.278;2023-08-12T11:55:18;100877.91;;;21.20;100.00
11499;BME280;5806;48.748;9.278;2023-08-12T11:57:46;100874.83;;;21.21;100.00
11499;BME280;5806;48.748;9.278;2023-08-12T12:00:14;100887.39;;;21.19;100.00
11499;BME280;5806;48.748;9.278;2023-08-12T12:02:51;100877.61;;;21.21;100.00
11499;BME280;5806;48.748;9.278;2023-08-12T12:05:27;100877.05;;;21.22;100.00
11499;BME280;5806;48.748;9.278;2023-08-12T12:07:56;100876.41;;;21.25;100.00
11499;BME280;5806;48.748;9.278;2023-08-12T12:10:31;100869.45;;;21.25;100.00
11499;BME280;5806;48.748;9.278;2023-08-12T12:13:00;100867.61;;;21.20;100.00
11499;BME280;5806;48.748;9.278;2023-08-12T12:15:28;100871.07;;;21.28;100.00
11499;BME280;5806;48.748;9.278;2023-08-12T12:17:56;100870.48;;;21.42;100.00
11499;BME280;5806;48.748;9.278;2023-08-12T12:20:23;100870.45;;;21.31;100.00
11499;BME280;5806;48.748;9.278;2023-08-12T12:22:51;100871.52;;;21.33;100.00
11499;BME280;5806;48.748;9.278;2023-08-12T12:25:19;100865.95;;;21.33;100.00
11499;BME280;5806;48.748;9.278;2023-08-12T12:27:47;100869.56;;;21.33;100.00
11499;BME280;5806;48.748;9.278;2023-08-12T12:30:15;100873.85;;;21.28;100.00
11499;BME280;5806;48.748;9.278;2023-08-12T12:32:43;100876.77;;;21.34;100.00
11499;BME280;5806;48.748;9.278;2023-08-12T12:35:11;100883.64;;;21.26;100.00
11499;BME280;5806;48.748;9.278;2023-08-12T12:37:39;100887.77;;;21.28;100.00
11499;BME280;5806;48.748;9.278;2023-08-12T12:40:07;100889.94;;;21.31;100.00
11499;BME280;5806;48.748;9.278;2023-08-12T12:42:34;100883.23;;;21.32;100.00
11499;BME280;5806;48.748;9.278;2023-08-12T12:45:02;100889.77;;;21.39;100.00
11499;BME280;5806;48.748;9.278;2023-08-12T12:47:29;100893.77;;;21.46;100.00
11499;BME280;5806;48.748;9.278;2023-08-12T12:49:57;100881.83;;;21.59;100.00
11499;BME280;5806;48.748;9.278;2023-08-12T12:52:24;100889.59;;;21.60;100.00
11499;BME280;5806;48.748;9.278;2023-08-12T12:54:52;100891.09;;;21.68;100.00
11499;BME280;5806;48.748;9.278;2023-08-12T12:57:19;100894.03;;;21.74;100.00
11499;BME280;5806;48.748;9.278;2023-08-12T12:59:46;100894.81;;;21.77;96.25
11499;BME280;5806;48.748;9.278;2023-08-12T13:02:14;100898.02;;;21.71;95.96